Aeroporto :
LOGIN :

Iscrizione | Disclaimer

   EN    FR    IT 

 










Sommario :    VFR   VFR Marginale   IFR   IFR Intensivo   IFR Molto Intensivo
Visibilità : 
Base nubi : 
>= 8 km
>= 3000ft
5 / 8 km
1000 / 3000 ft
1500m / 5 km
500 / 1000 ft
800 / 1500m
200 / 500 ft
< 800m
< 200 ft
Simboli :   Temporali  Nebbia  Neve Forte  Precipitazioni Forti  Vento > 20 kt
SIGMETs :   Varie  Temporali  Ghiacco  Turbolenza  Onda orograficha  Ceneri Vulcaniche






- Altitudine del aeroporto : 124 ft
- Codice IATA : RNS


LFRN - Rennes

ULTIMO METAR :
  • 151030Z AUTO 22007KT 170V260 9999 FEW019 22/16 Q1006 NOSIG

METARs OBSOLETI :
  • 151000Z AUTO 23008KT 200V260 9999 FEW018 BKN150 21/16 Q1006 NOSIG
  • 150930Z AUTO 25008KT 210V280 9999 SCT017 21/16 Q1006 NOSIG
  • 150900Z AUTO 25006KT 9999 SCT014 20/17 Q1006 NOSIG
  • 150830Z AUTO 25008KT 200V270 9000 OVC013 19/16 Q1006 BECMG SCT015
  • 150800Z AUTO 24007KT 200V260 7000 OVC011 18/16 Q1006 BECMG SCT015

TAF AMD TAF LFRN
Valido dal 15 a 06 ore il 16 a 06 ore UTC


150624Z 1506/1606 23008KT 6000 BKN009
TEMPO 1506/1507 4000 BR
BECMG 1507/1509 SCT015
PROB30
TEMPO 1515/1518 SCT040CB
PROB40
TEMPO 1603/1606 3000 SHRA BKN040CB
ATIS : +33 2 99 67 72 50



MetMap, La meteo Aeronautica in un colpo d'occhio ! - Copyright ORBIFLY Dicembre 2007 - Disclaimer

ORBIFLY MET'MAP TEAM :

Programmazione e sviluppo : Alexandra Zaïnal
Concezione : Baudouin d'Aumeries
Supporto tecnico e logistico : Manuel Goepfert
Aiuto : Marc-Olivier Méhu
Aiuto per la traduzione : Arnaldo La Scala




FONTI E CREDITI :

   NOAA